Time,TemperatureF,DewpointF,PressureIn,WindDirection,WindDirectionDegrees,WindSpeedMPH,WindSpeedGustMPH,Humidity,HourlyPrecipIn,Conditions,Clouds,dailyrainin,SoftwareType,DateUTC
2013-07-03 00:00:00,64.6,63.8,30.09,SSE,157,0.0,-999.0,97,-99.99,,,-99.99,MetarLogicWeatherSta,2013-07-03 04:00:00,
2013-07-03 00:01:00,64.5,63.8,30.09,SSE,157,0.0,-999.0,97,-99.99,,,-99.99,MetarLogicWeatherSta,2013-07-03 04:01:00,
2013-07-03 00:06:00,64.7,63.9,30.09,SSE,157,0.0,-999.0,97,-99.99,,,-99.99,MetarLogicWeatherSta,2013-07-03 04:06:00,
2013-07-03 00:11:00,64.6,63.8,30.10,SSE,157,0.0,-999.0,97,-99.99,,,-99.99,MetarLogicWeatherSta,2013-07-03 04:11:00,
2013-07-03 00:16:00,64.5,63.8,30.10,SSE,157,0.0,-999.0,97,-99.99,,,-99.99,MetarLogicWeatherSta,2013-07-03 04:16:00,
2013-07-03 00:21:00,64.4,63.7,30.10,SSE,157,0.0,-999.0,97,-99.99,,,-99.99,MetarLogicWeatherSta,2013-07-03 04:21:00,
2013-07-03 00:26:00,64.1,63.4,30.10,SSE,157,0.0,-999.0,97,-99.99,,,-99.99,MetarLogicWeatherSta,2013-07-03 04:26:00,
2013-07-03 00:31:00,64.2,63.5,30.09,SSE,157,0.0,-999.0,97,-99.99,,,-99.99,MetarLogicWeatherSta,2013-07-03 04:31:00,
2013-07-03 00:36:00,64.1,63.5,30.09,SSE,157,0.0,-999.0,97,-99.99,,,-99.99,MetarLogicWeatherSta,2013-07-03 04:36:00,
2013-07-03 00:41:00,64.1,63.5,30.09,SSE,157,0.0,-999.0,97,-99.99,,,-99.99,MetarLogicWeatherSta,2013-07-03 04:41:00,
2013-07-03 00:46:00,63.9,63.4,30.09,SSE,157,0.0,-999.0,97,-99.99,,,-99.99,MetarLogicWeatherSta,2013-07-03 04:46:00,
2013-07-03 00:51:00,64.1,63.5,30.10,SSE,157,0.0,-999.0,97,-99.99,,,-99.99,MetarLogicWeatherSta,2013-07-03 04:51:00,
2013-07-03 00:53:00,64.2,63.7,30.10,SSE,157,0.0,-999.0,98,-99.99,,,-99.99,MetarLogicWeatherSta,2013-07-03 04:53:00,
2013-07-03 00:58:00,64.1,63.3,30.10,SSE,157,0.0,-999.0,97,-99.99,,,-99.99,MetarLogicWeatherSta,2013-07-03 04:58:00,
2013-07-03 01:03:00,64.1,63.5,30.09,SSE,157,0.0,-999.0,98,-99.99,,,-99.99,MetarLogicWeatherSta,2013-07-03 05:03:00,
2013-07-03 01:07:00,63.9,63.5,30.10,SSE,157,0.0,-999.0,98,-99.99,,,-99.99,MetarLogicWeatherSta,2013-07-03 05:07:00,
2013-07-03 01:12:00,64.2,63.7,30.10,SSE,157,0.0,-999.0,98,-99.99,,,-99.99,MetarLogicWeatherSta,2013-07-03 05:12:00,
2013-07-03 01:17:00,64.2,63.7,30.10,SSE,157,0.0,-999.0,98,-99.99,,,-99.99,MetarLogicWeatherSta,2013-07-03 05:17:00,
2013-07-03 01:22:00,64.1,63.7,30.10,SSE,157,0.0,-999.0,98,-99.99,,,-99.99,MetarLogicWeatherSta,2013-07-03 05:22:00,
2013-07-03 01:27:00,64.1,63.6,30.10,SSE,157,0.0,-999.0,98,-99.99,,,-99.99,MetarLogicWeatherSta,2013-07-03 05:27:00,
2013-07-03 01:32:00,64.1,63.6,30.10,South,180,0.0,-999.0,98,-99.99,,,-99.99,MetarLogicWeatherSta,2013-07-03 05:32:00,
2013-07-03 01:37:00,64.1,63.6,30.10,SSE,157,0.0,-999.0,98,-99.99,,,-99.99,MetarLogicWeatherSta,2013-07-03 05:37:00,
2013-07-03 01:42:00,64.2,63.7,30.10,SSE,157,0.0,-999.0,98,-99.99,,,-99.99,MetarLogicWeatherSta,2013-07-03 05:42:00,
2013-07-03 01:47:00,63.9,63.4,30.10,South,180,0.0,-999.0,98,-99.99,,,-99.99,MetarLogicWeatherSta,2013-07-03 05:47:00,
2013-07-03 01:52:00,64.2,63.7,30.10,SSE,157,0.0,-999.0,98,-99.99,,,-99.99,MetarLogicWeatherSta,2013-07-03 05:52:00,
2013-07-03 01:54:00,64.3,63.8,30.09,SSE,157,0.0,-999.0,98,-99.99,,,-99.99,MetarLogicWeatherSta,2013-07-03 05:54:00,
2013-07-03 01:58:00,64.1,63.6,30.10,South,180,0.0,-999.0,98,-99.99,,,-99.99,MetarLogicWeatherSta,2013-07-03 05:58:00,
2013-07-03 02:02:00,64.0,63.6,30.09,SE,135,1.0,-999.0,98,-99.99,,,-99.99,MetarLogicWeatherSta,2013-07-03 06:02:00,
2013-07-03 02:07:00,64.0,63.5,30.10,SSE,157,0.0,-999.0,98,-99.99,,,-99.99,MetarLogicWeatherSta,2013-07-03 06:07:00,
2013-07-03 02:12:00,64.2,63.8,30.09,SSE,157,0.0,-999.0,98,-99.99,,,-99.99,MetarLogicWeatherSta,2013-07-03 06:12:00,
2013-07-03 02:13:00,64.2,63.9,30.09,SSE,157,0.0,-999.0,99,-99.99,,,-99.99,MetarLogicWeatherSta,2013-07-03 06:13:00,
2013-07-03 02:18:00,64.3,63.9,30.10,SSE,157,0.0,-999.0,98,-99.99,,,-99.99,MetarLogicWeatherSta,2013-07-03 06:18:00,
2013-07-03 02:23:00,64.2,63.9,30.09,SSE,157,0.0,-999.0,98,-99.99,,,-99.99,MetarLogicWeatherSta,2013-07-03 06:23:00,
2013-07-03 02:26:00,64.3,64.0,30.09,SSE,157,0.0,-999.0,98,-99.99,,,-99.99,MetarLogicWeatherSta,2013-07-03 06:26:00,
2013-07-03 02:31:00,64.2,63.8,30.10,SSE,157,0.0,-999.0,98,-99.99,,,-99.99,MetarLogicWeatherSta,2013-07-03 06:31:00,
2013-07-03 02:36:00,64.1,63.8,30.09,SSE,157,0.0,-999.0,98,-99.99,,,-99.99,MetarLogicWeatherSta,2013-07-03 06:36:00,
2013-07-03 02:41:00,64.1,63.6,30.10,SSE,157,0.0,-999.0,98,-99.99,,,-99.99,MetarLogicWeatherSta,2013-07-03 06:41:00,
2013-07-03 02:43:00,64.1,63.7,30.10,SSE,157,0.0,-999.0,98,-99.99,,,-99.99,MetarLogicWeatherSta,2013-07-03 06:43:00,
2013-07-03 02:48:00,64.2,63.9,30.10,SSE,157,0.0,-999.0,99,-99.99,,,-99.99,MetarLogicWeatherSta,2013-07-03 06:48:00,
2013-07-03 02:53:00,64.2,64.0,30.09,South,180,0.0,-999.0,99,-99.99,,,-99.99,MetarLogicWeatherSta,2013-07-03 06:53:00,
2013-07-03 02:55:00,64.1,63.8,30.09,South,180,0.0,-999.0,99,-99.99,,,-99.99,MetarLogicWeatherSta,2013-07-03 06:55:00,
2013-07-03 03:00:00,64.0,63.6,30.09,SSE,157,0.0,-999.0,98,-99.99,,,-99.99,MetarLogicWeatherSta,2013-07-03 07:00:00,
2013-07-03 03:05:00,63.8,63.5,30.10,SSE,157,0.0,-999.0,98,-99.99,,,-99.99,MetarLogicWeatherSta,2013-07-03 07:05:00,
2013-07-03 03:11:00,63.8,63.5,30.09,SSE,157,0.0,-999.0,98,-99.99,,,-99.99,MetarLogicWeatherSta,2013-07-03 07:11:00,
2013-07-03 03:16:00,63.8,63.5,30.10,SSE,157,0.0,-999.0,99,-99.99,,,-99.99,MetarLogicWeatherSta,2013-07-03 07:16:00,
2013-07-03 03:21:00,63.9,63.6,30.09,SSE,157,0.0,-999.0,99,-99.99,,,-99.99,MetarLogicWeatherSta,2013-07-03 07:21:00,
2013-07-03 03:26:00,63.8,63.5,30.10,SSE,157,0.0,-999.0,98,-99.99,,,-99.99,MetarLogicWeatherSta,2013-07-03 07:26:00,
2013-07-03 03:31:00,63.6,63.3,30.10,SSE,157,0.0,-999.0,99,-99.99,,,-99.99,MetarLogicWeatherSta,2013-07-03 07:31:00,
2013-07-03 03:36:00,63.4,63.0,30.10,SSE,157,0.0,-999.0,98,-99.99,,,-99.99,MetarLogicWeatherSta,2013-07-03 07:36:00,
2013-07-03 03:38:00,63.5,63.2,30.10,SSE,157,0.0,-999.0,98,-99.99,,,-99.99,MetarLogicWeatherSta,2013-07-03 07:38:00,
2013-07-03 03:43:00,63.6,63.4,30.10,SSE,157,0.0,-999.0,99,-99.99,,,-99.99,MetarLogicWeatherSta,2013-07-03 07:43:00,
2013-07-03 03:48:00,63.3,63.0,30.10,SSE,157,0.0,-999.0,98,-99.99,,,-99.99,MetarLogicWeatherSta,2013-07-03 07:48:00,
2013-07-03 03:53:00,63.0,62.7,30.10,SSE,157,0.0,-999.0,98,-99.99,,,-99.99,MetarLogicWeatherSta,2013-07-03 07:53:00,
2013-07-03 03:58:00,63.3,63.0,30.10,SSE,157,0.0,-999.0,98,-99.99,,,-99.99,MetarLogicWeatherSta,2013-07-03 07:58:00,
2013-07-03 04:03:00,63.2,62.9,30.10,SSE,157,0.0,-999.0,98,-99.99,,,-99.99,MetarLogicWeatherSta,2013-07-03 08:03:00,
2013-07-03 04:08:00,63.2,63.0,30.10,SSE,157,0.0,-999.0,99,-99.99,,,-99.99,MetarLogicWeatherSta,2013-07-03 08:08:00,
2013-07-03 04:13:00,63.0,62.8,30.10,SSE,157,0.0,-999.0,99,-99.99,,,-99.99,MetarLogicWeatherSta,2013-07-03 08:13:00,
2013-07-03 04:14:00,63.1,62.9,30.10,South,180,0.0,0.0,99,-99.99,,,-99.99,MetarLogicWeatherSta,2013-07-03 08:14:00,
2013-07-03 04:19:00,62.9,62.6,30.10,SSE,157,0.0,-999.0,98,-99.99,,,-99.99,MetarLogicWeatherSta,2013-07-03 08:19:00,
2013-07-03 04:24:00,63.3,63.1,30.10,SSE,157,0.0,-999.0,99,-99.99,,,-99.99,MetarLogicWeatherSta,2013-07-03 08:24:00,
2013-07-03 04:29:00,63.0,62.8,30.10,SSE,157,0.0,-999.0,98,-99.99,,,-99.99,MetarLogicWeatherSta,2013-07-03 08:29:00,
2013-07-03 04:34:00,63.0,62.9,30.10,SSE,157,0.0,-999.0,99,-99.99,,,-99.99,MetarLogicWeatherSta,2013-07-03 08:34:00,
2013-07-03 04:39:00,63.0,62.8,30.11,SSE,157,0.0,-999.0,98,-99.99,,,-99.99,MetarLogicWeatherSta,2013-07-03 08:39:00,
2013-07-03 04:45:00,62.9,62.6,30.11,SSE,157,0.0,-999.0,98,-99.99,,,-99.99,MetarLogicWeatherSta,2013-07-03 08:45:00,
2013-07-03 04:50:00,63.0,62.8,30.11,SSE,157,0.0,-999.0,99,-99.99,,,-99.99,MetarLogicWeatherSta,2013-07-03 08:50:00,
2013-07-03 04:55:00,63.0,62.8,30.11,SSE,157,0.0,-999.0,99,-99.99,,,-99.99,MetarLogicWeatherSta,2013-07-03 08:55:00,
2013-07-03 05:00:00,63.2,63.1,30.10,SSE,157,0.0,-999.0,99,-99.99,,,-99.99,MetarLogicWeatherSta,2013-07-03 09:00:00,
2013-07-03 05:05:00,63.0,62.9,30.11,SSE,157,0.0,-999.0,99,-99.99,,,-99.99,MetarLogicWeatherSta,2013-07-03 09:05:00,
2013-07-03 05:10:00,63.0,62.9,30.11,SSE,157,0.0,-999.0,99,-99.99,,,-99.99,MetarLogicWeatherSta,2013-07-03 09:10:00,
2013-07-03 05:15:00,63.2,63.1,30.11,SSE,157,0.0,-999.0,99,-99.99,,,-99.99,MetarLogicWeatherSta,2013-07-03 09:15:00,
2013-07-03 05:20:00,63.4,63.2,30.11,SSE,157,0.0,-999.0,99,-99.99,,,-99.99,MetarLogicWeatherSta,2013-07-03 09:20:00,
2013-07-03 05:25:00,63.7,63.5,30.11,SE,135,0.0,-999.0,99,-99.99,,,-99.99,MetarLogicWeatherSta,2013-07-03 09:25:00,
2013-07-03 05:30:00,63.7,63.6,30.11,SSE,157,0.0,-999.0,99,-99.99,,,-99.99,MetarLogicWeatherSta,2013-07-03 09:30:00,
2013-07-03 05:35:00,63.9,63.8,30.11,SSE,157,0.0,-999.0,99,-99.99,,,-99.99,MetarLogicWeatherSta,2013-07-03 09:35:00,
2013-07-03 05:40:00,63.9,-99.9,30.11,SSE,157,0.0,-999.0,-999,-99.99,,,-99.99,MetarLogicWeatherSta,2013-07-03 09:40:00,
2013-07-03 05:45:00,64.1,64.1,30.11,SSE,157,0.0,-999.0,99,-99.99,,,-99.99,MetarLogicWeatherSta,2013-07-03 09:45:00,
2013-07-03 05:50:00,64.1,64.1,30.11,SE,135,0.0,-999.0,99,-99.99,,,-99.99,MetarLogicWeatherSta,2013-07-03 09:50:00,
2013-07-03 05:55:00,64.4,64.3,30.12,SSE,157,0.0,-999.0,99,-99.99,,,-99.99,MetarLogicWeatherSta,2013-07-03 09:55:00,
2013-07-03 06:00:00,63.9,-99.9,30.12,SE,135,1.0,-999.0,-999,-99.99,,,-99.99,MetarLogicWeatherSta,2013-07-03 10:00:00,
2013-07-03 06:05:00,64.2,64.2,30.12,SSE,157,0.0,-999.0,99,-99.99,,,-99.99,MetarLogicWeatherSta,2013-07-03 10:05:00,
2013-07-03 06:10:00,63.9,63.8,30.12,SSE,157,0.0,-999.0,99,-99.99,,,-99.99,MetarLogicWeatherSta,2013-07-03 10:10:00,
2013-07-03 06:16:00,64.2,-99.9,30.13,SSE,157,0.0,-999.0,-999,-99.99,,,-99.99,MetarLogicWeatherSta,2013-07-03 10:16:00,
2013-07-03 06:21:00,64.1,64.1,30.13,South,179,0.0,0.0,99,-99.99,,,-99.99,MetarLogicWeatherSta,2013-07-03 10:21:00,
2013-07-03 06:26:00,64.3,-99.9,30.13,SSE,157,0.0,-999.0,-999,-99.99,,,-99.99,MetarLogicWeatherSta,2013-07-03 10:26:00,
2013-07-03 06:31:00,64.3,-99.9,30.13,SE,135,0.0,-999.0,-999,-99.99,,,-99.99,MetarLogicWeatherSta,2013-07-03 10:31:00,
2013-07-03 06:36:00,64.2,-99.9,30.13,SSE,157,0.0,-999.0,-999,-99.99,,,-99.99,MetarLogicWeatherSta,2013-07-03 10:36:00,
2013-07-03 06:41:00,64.2,-99.9,30.13,SSE,157,0.0,-999.0,-999,-99.99,,,-99.99,MetarLogicWeatherSta,2013-07-03 10:41:00,
2013-07-03 06:46:00,64.5,-99.9,30.13,SE,135,0.0,-999.0,-999,-99.99,,,-99.99,MetarLogicWeatherSta,2013-07-03 10:46:00,
2013-07-03 06:51:00,64.5,-99.9,30.13,SE,135,0.0,-999.0,-999,-99.99,,,-99.99,MetarLogicWeatherSta,2013-07-03 10:51:00,
2013-07-03 06:56:00,64.6,-99.9,30.13,SSE,157,0.0,-999.0,-999,-99.99,,,-99.99,MetarLogicWeatherSta,2013-07-03 10:56:00,
2013-07-03 07:01:00,64.5,-99.9,30.14,SE,135,0.0,-999.0,-999,-99.99,,,-99.99,MetarLogicWeatherSta,2013-07-03 11:01:00,
2013-07-03 07:07:00,64.7,-99.9,30.14,SSE,157,0.0,-999.0,-999,-99.99,,,-99.99,MetarLogicWeatherSta,2013-07-03 11:07:00,
2013-07-03 07:12:00,64.8,-99.9,30.14,SE,135,0.0,-999.0,-999,-99.99,,,-99.99,MetarLogicWeatherSta,2013-07-03 11:12:00,
2013-07-03 07:17:00,65.1,-99.9,30.13,SE,135,0.0,-999.0,-999,-99.99,,,-99.99,MetarLogicWeatherSta,2013-07-03 11:17:00,
2013-07-03 07:22:00,65.6,-99.9,30.14,ESE,112,0.0,-999.0,-999,-99.99,,,-99.99,MetarLogicWeatherSta,2013-07-03 11:22:00,
2013-07-03 07:27:00,65.6,-99.9,30.13,SE,135,0.0,-999.0,-999,-99.99,,,-99.99,MetarLogicWeatherSta,2013-07-03 11:27:00,
2013-07-03 07:32:00,65.8,-99.9,30.14,ESE,112,1.0,-999.0,-999,-99.99,,,-99.99,MetarLogicWeatherSta,2013-07-03 11:32:00,
2013-07-03 07:37:00,65.8,-99.9,30.14,SE,135,1.0,-999.0,-999,-99.99,,,-99.99,MetarLogicWeatherSta,2013-07-03 11:37:00,
2013-07-03 07:42:00,65.9,-99.9,30.14,SSE,157,0.0,-999.0,-999,-99.99,,,-99.99,MetarLogicWeatherSta,2013-07-03 11:42:00,
2013-07-03 07:45:00,66.1,-99.9,30.14,SSE,157,0.0,-999.0,-999,-99.99,,,-99.99,MetarLogicWeatherSta,2013-07-03 11:45:00,
2013-07-03 07:50:00,66.2,-99.9,30.15,SSE,157,0.0,-999.0,-999,-99.99,,,-99.99,MetarLogicWeatherSta,2013-07-03 11:50:00,
2013-07-03 07:56:00,66.2,-99.9,30.15,SSE,157,0.0,-999.0,-999,-99.99,,,-99.99,MetarLogicWeatherSta,2013-07-03 11:56:00,
2013-07-03 07:59:00,66.6,-99.9,30.15,SE,135,0.0,-999.0,-999,-99.99,,,-99.99,MetarLogicWeatherSta,2013-07-03 11:59:00,
2013-07-03 08:04:00,67.0,-99.9,30.15,SSE,157,0.0,-999.0,-999,-99.99,,,-99.99,MetarLogicWeatherSta,2013-07-03 12:04:00,
2013-07-03 08:11:00,67.2,-99.9,30.15,SSE,157,0.0,-999.0,-999,-99.99,,,-99.99,MetarLogicWeatherSta,2013-07-03 12:11:00,
2013-07-03 08:12:00,67.5,-99.9,30.15,SSE,157,0.0,-999.0,-999,-99.99,,,-99.99,MetarLogicWeatherSta,2013-07-03 12:12:00,
2013-07-03 08:16:00,67.7,-99.9,30.15,South,180,0.0,-999.0,-999,-99.99,,,-99.99,MetarLogicWeatherSta,2013-07-03 12:16:00,
2013-07-03 08:21:00,68.2,-99.9,30.15,East,90,3.0,-999.0,-999,-99.99,,,-99.99,MetarLogicWeatherSta,2013-07-03 12:21:00,
2013-07-03 08:26:00,68.8,-99.9,30.15,SSE,157,0.0,-999.0,-999,-99.99,,,-99.99,MetarLogicWeatherSta,2013-07-03 12:26:00,
2013-07-03 08:31:00,69.2,-99.9,30.15,ENE,67,1.0,-999.0,-999,-99.99,,,-99.99,MetarLogicWeatherSta,2013-07-03 12:31:00,
2013-07-03 08:39:00,70.0,-99.9,30.15,East,90,1.0,-999.0,-999,-99.99,,,-99.99,MetarLogicWeatherSta,2013-07-03 12:39:00,
2013-07-03 08:44:00,70.9,-99.9,30.15,ESE,112,1.0,-999.0,-999,-99.99,,,-99.99,MetarLogicWeatherSta,2013-07-03 12:44:00,
2013-07-03 08:49:00,71.5,-99.9,30.15,SSE,157,0.0,-999.0,-999,-99.99,,,-99.99,MetarLogicWeatherSta,2013-07-03 12:49:00,
2013-07-03 08:54:00,71.9,-99.9,30.16,SE,135,1.0,-999.0,-999,-99.99,,,-99.99,MetarLogicWeatherSta,2013-07-03 12:54:00,
2013-07-03 08:59:00,72.9,-99.9,30.16,SE,135,1.0,-999.0,-999,-99.99,,,-99.99,MetarLogicWeatherSta,2013-07-03 12:59:00,
2013-07-03 09:04:00,74.0,-99.9,30.16,South,180,1.0,-999.0,-999,-99.99,,,-99.99,MetarLogicWeatherSta,2013-07-03 13:04:00,
2013-07-03 09:09:00,74.2,-99.9,30.16,South,180,0.0,-999.0,-999,-99.99,,,-99.99,MetarLogicWeatherSta,2013-07-03 13:09:00,
2013-07-03 09:14:00,74.8,74.7,30.16,SSE,157,0.0,-999.0,99,-99.99,,,-99.99,MetarLogicWeatherSta,2013-07-03 13:14:00,
2013-07-03 09:19:00,75.0,74.9,30.16,South,186,0.4,1.0,99,-99.99,,,-99.99,MetarLogicWeatherSta,2013-07-03 13:19:00,
2013-07-03 09:24:00,75.5,75.2,30.16,SSE,157,0.0,-999.0,98,-99.99,,,-99.99,MetarLogicWeatherSta,2013-07-03 13:24:00,
2013-07-03 09:25:00,75.5,75.2,30.16,East,90,1.0,-999.0,98,-99.99,,,-99.99,MetarLogicWeatherSta,2013-07-03 13:25:00,
2013-07-03 09:30:00,75.6,74.6,30.16,South,180,1.0,-999.0,96,-99.99,,,-99.99,MetarLogicWeatherSta,2013-07-03 13:30:00,
2013-07-03 09:35:00,76.1,74.3,30.16,SE,135,1.0,-999.0,94,-99.99,,,-99.99,MetarLogicWeatherSta,2013-07-03 13:35:00,
2013-07-03 09:40:00,76.1,74.1,30.17,South,180,0.0,-999.0,93,-99.99,,,-99.99,MetarLogicWeatherSta,2013-07-03 13:40:00,
2013-07-03 09:45:00,76.4,73.9,30.17,SSE,157,3.0,-999.0,91,-99.99,,,-99.99,MetarLogicWeatherSta,2013-07-03 13:45:00,
2013-07-03 09:50:00,77.0,74.2,30.16,South,180,0.0,-999.0,91,-99.99,,,-99.99,MetarLogicWeatherSta,2013-07-03 13:50:00,
2013-07-03 09:55:00,77.6,73.4,30.17,ENE,67,3.0,-999.0,86,-99.99,,,-99.99,MetarLogicWeatherSta,2013-07-03 13:55:00,
2013-07-03 10:00:00,77.9,73.4,30.17,SE,135,1.0,-999.0,85,-99.99,,,-99.99,MetarLogicWeatherSta,2013-07-03 14:00:00,
2013-07-03 10:05:00,78.6,73.3,30.16,SSE,157,0.0,-999.0,83,-99.99,,,-99.99,MetarLogicWeatherSta,2013-07-03 14:05:00,
2013-07-03 10:09:00,78.8,72.5,30.17,ESE,112,1.0,-999.0,80,-99.99,,,-99.99,MetarLogicWeatherSta,2013-07-03 14:09:00,
2013-07-03 10:14:00,79.4,73.4,30.16,SE,135,3.0,-999.0,81,-99.99,,,-99.99,MetarLogicWeatherSta,2013-07-03 14:14:00,
2013-07-03 10:17:00,79.8,73.4,30.16,SE,135,1.0,-999.0,80,-99.99,,,-99.99,MetarLogicWeatherSta,2013-07-03 14:17:00,
2013-07-03 10:22:00,80.1,73.2,30.16,South,180,1.0,-999.0,79,-99.99,,,-99.99,MetarLogicWeatherSta,2013-07-03 14:22:00,
2013-07-03 10:27:00,80.3,73.3,30.16,South,180,0.0,-999.0,79,-99.99,,,-99.99,MetarLogicWeatherSta,2013-07-03 14:27:00,
2013-07-03 10:32:00,80.5,73.7,30.15,South,180,0.0,-999.0,79,-99.99,,,-99.99,MetarLogicWeatherSta,2013-07-03 14:32:00,
2013-07-03 10:37:00,80.0,72.8,30.16,SE,135,0.0,-999.0,78,-99.99,,,-99.99,MetarLogicWeatherSta,2013-07-03 14:37:00,
2013-07-03 10:42:00,80.1,72.8,30.16,NE,45,1.0,-999.0,78,-99.99,,,-99.99,MetarLogicWeatherSta,2013-07-03 14:42:00,
2013-07-03 10:47:00,80.9,72.5,30.15,NE,45,3.0,-999.0,75,-99.99,,,-99.99,MetarLogicWeatherSta,2013-07-03 14:47:00,
2013-07-03 10:51:00,81.4,73.8,30.16,South,180,0.0,-999.0,77,-99.99,,,-99.99,MetarLogicWeatherSta,2013-07-03 14:51:00,
2013-07-03 10:56:00,81.7,74.2,30.16,South,180,0.0,-999.0,77,-99.99,,,-99.99,MetarLogicWeatherSta,2013-07-03 14:56:00,
2013-07-03 11:02:00,81.8,73.6,30.16,East,90,3.0,-999.0,76,-99.99,,,-99.99,MetarLogicWeatherSta,2013-07-03 15:02:00,
2013-07-03 11:03:00,81.7,73.3,30.16,NE,45,4.0,-999.0,75,-99.99,,,-99.99,MetarLogicWeatherSta,2013-07-03 15:03:00,
2013-07-03 11:08:00,81.6,72.1,30.16,NE,45,4.0,-999.0,72,-99.99,,,-99.99,MetarLogicWeatherSta,2013-07-03 15:08:00,
2013-07-03 11:13:00,81.5,72.3,30.15,SSE,157,1.0,-999.0,73,-99.99,,,-99.99,MetarLogicWeatherSta,2013-07-03 15:13:00,
2013-07-03 11:18:00,82.0,72.8,30.15,South,180,1.0,-999.0,73,-99.99,,,-99.99,MetarLogicWeatherSta,2013-07-03 15:18:00,
2013-07-03 11:23:00,82.2,72.5,30.15,East,90,3.0,-999.0,72,-99.99,,,-99.99,MetarLogicWeatherSta,2013-07-03 15:23:00,
2013-07-03 11:28:00,82.5,73.0,30.15,SSE,157,0.0,-999.0,72,-99.99,,,-99.99,MetarLogicWeatherSta,2013-07-03 15:28:00,
2013-07-03 11:33:00,82.7,73.8,30.15,SE,135,0.0,-999.0,74,-99.99,,,-99.99,MetarLogicWeatherSta,2013-07-03 15:33:00,
2013-07-03 11:38:00,83.1,72.7,30.15,SSE,157,1.0,-999.0,70,-99.99,,,-99.99,MetarLogicWeatherSta,2013-07-03 15:38:00,
2013-07-03 11:43:00,83.0,71.7,30.15,ESE,112,1.0,-999.0,68,-99.99,,,-99.99,MetarLogicWeatherSta,2013-07-03 15:43:00,
2013-07-03 11:48:00,82.6,72.9,30.15,SSE,157,0.0,-999.0,72,-99.99,,,-99.99,MetarLogicWeatherSta,2013-07-03 15:48:00,
2013-07-03 11:52:00,82.9,72.6,30.15,SSE,157,0.0,-999.0,70,-99.99,,,-99.99,MetarLogicWeatherSta,2013-07-03 15:52:00,
2013-07-03 11:57:00,82.7,73.0,30.15,SSE,157,1.0,-999.0,72,-99.99,,,-99.99,MetarLogicWeatherSta,2013-07-03 15:57:00,
2013-07-03 12:02:00,82.6,73.2,30.15,SSE,157,0.0,-999.0,72,-99.99,,,-99.99,MetarLogicWeatherSta,2013-07-03 16:02:00,
2013-07-03 12:07:00,82.7,72.2,30.15,South,180,0.0,-999.0,70,-99.99,,,-99.99,MetarLogicWeatherSta,2013-07-03 16:07:00,
2013-07-03 12:12:00,82.6,71.6,30.15,SSE,157,1.0,-999.0,68,-99.99,,,-99.99,MetarLogicWeatherSta,2013-07-03 16:12:00,
2013-07-03 12:17:00,82.5,73.4,30.15,South,180,0.0,-999.0,73,-99.99,,,-99.99,MetarLogicWeatherSta,2013-07-03 16:17:00,
2013-07-03 12:22:00,82.6,73.8,30.15,SE,135,1.0,-999.0,74,-99.99,,,-99.99,MetarLogicWeatherSta,2013-07-03 16:22:00,
2013-07-03 12:27:00,83.3,71.9,30.15,SSE,157,0.0,-999.0,68,-99.99,,,-99.99,MetarLogicWeatherSta,2013-07-03 16:27:00,
2013-07-03 12:32:00,83.2,72.8,30.15,SE,135,0.0,-999.0,70,-99.99,,,-99.99,MetarLogicWeatherSta,2013-07-03 16:32:00,
2013-07-03 12:37:00,83.0,71.9,30.15,SE,135,0.0,-999.0,68,-99.99,,,-99.99,MetarLogicWeatherSta,2013-07-03 16:37:00,
2013-07-03 12:42:00,82.9,71.7,30.15,South,180,0.0,-999.0,68,-99.99,,,-99.99,MetarLogicWeatherSta,2013-07-03 16:42:00,
2013-07-03 12:47:00,82.8,72.4,30.15,South,180,1.0,-999.0,70,-99.99,,,-99.99,MetarLogicWeatherSta,2013-07-03 16:47:00,
2013-07-03 12:52:00,83.5,72.5,30.15,South,180,0.0,-999.0,69,-99.99,,,-99.99,MetarLogicWeatherSta,2013-07-03 16:52:00,
2013-07-03 12:57:00,83.5,72.8,30.15,ENE,67,3.0,-999.0,69,-99.99,,,-99.99,MetarLogicWeatherSta,2013-07-03 16:57:00,
2013-07-03 13:02:00,84.0,72.6,30.15,SSE,157,0.0,-999.0,68,-99.99,,,-99.99,MetarLogicWeatherSta,2013-07-03 17:02:00,
2013-07-03 13:07:00,84.1,71.3,30.15,South,180,1.0,-999.0,64,-99.99,,,-99.99,MetarLogicWeatherSta,2013-07-03 17:07:00,
2013-07-03 13:12:00,83.8,72.4,30.15,South,180,0.0,-999.0,68,-99.99,,,-99.99,MetarLogicWeatherSta,2013-07-03 17:12:00,
2013-07-03 13:17:00,83.5,72.4,30.15,SSE,157,0.0,-999.0,68,-99.99,,,-99.99,MetarLogicWeatherSta,2013-07-03 17:17:00,
2013-07-03 13:22:00,83.7,74.0,30.15,South,180,1.0,-999.0,72,-99.99,,,-99.99,MetarLogicWeatherSta,2013-07-03 17:22:00,
2013-07-03 13:27:00,84.2,72.6,30.15,South,180,0.0,-999.0,67,-99.99,,,-99.99,MetarLogicWeatherSta,2013-07-03 17:27:00,
2013-07-03 13:32:00,83.6,71.8,30.15,South,180,0.0,-999.0,67,-99.99,,,-99.99,MetarLogicWeatherSta,2013-07-03 17:32:00,
2013-07-03 13:37:00,83.2,72.7,30.15,SSW,202,1.0,-999.0,70,-99.99,,,-99.99,MetarLogicWeatherSta,2013-07-03 17:37:00,
2013-07-03 13:42:00,82.6,72.2,30.15,WSW,247,3.0,-999.0,70,-99.99,,,-99.99,MetarLogicWeatherSta,2013-07-03 17:42:00,
2013-07-03 13:47:00,81.7,72.1,30.15,South,180,0.0,-999.0,72,-99.99,,,-99.99,MetarLogicWeatherSta,2013-07-03 17:47:00,
2013-07-03 13:52:00,81.7,71.3,30.15,SSE,157,0.0,-999.0,70,-99.99,,,-99.99,MetarLogicWeatherSta,2013-07-03 17:52:00,
2013-07-03 13:57:00,82.3,72.0,30.14,South,180,1.0,-999.0,70,-99.99,,,-99.99,MetarLogicWeatherSta,2013-07-03 17:57:00,
2013-07-03 14:02:00,82.6,71.5,30.14,SSW,202,1.0,-999.0,68,-99.99,,,-99.99,MetarLogicWeatherSta,2013-07-03 18:02:00,
2013-07-03 14:07:00,82.5,71.7,30.14,SW,225,3.0,-999.0,69,-99.99,,,-99.99,MetarLogicWeatherSta,2013-07-03 18:07:00,
2013-07-03 14:12:00,82.7,71.8,30.13,South,180,0.0,-999.0,69,-99.99,,,-99.99,MetarLogicWeatherSta,2013-07-03 18:12:00,
2013-07-03 14:17:00,82.7,72.1,30.13,SSW,202,1.0,-999.0,69,-99.99,,,-99.99,MetarLogicWeatherSta,2013-07-03 18:17:00,
2013-07-03 14:22:00,82.6,71.3,30.13,SSE,157,0.0,-999.0,68,-99.99,,,-99.99,MetarLogicWeatherSta,2013-07-03 18:22:00,
2013-07-03 14:27:00,83.5,71.6,30.13,South,180,0.0,-999.0,66,-99.99,,,-99.99,MetarLogicWeatherSta,2013-07-03 18:27:00,
2013-07-03 14:32:00,84.5,72.4,30.13,SSE,157,0.0,-999.0,66,-99.99,,,-99.99,MetarLogicWeatherSta,2013-07-03 18:32:00,
2013-07-03 14:37:00,84.5,72.9,30.13,South,180,0.0,-999.0,67,-99.99,,,-99.99,MetarLogicWeatherSta,2013-07-03 18:37:00,
2013-07-03 14:42:00,84.1,72.6,30.13,South,180,0.0,-999.0,67,-99.99,,,-99.99,MetarLogicWeatherSta,2013-07-03 18:42:00,
2013-07-03 14:47:00,83.8,72.4,30.13,SSE,157,0.0,-999.0,68,-99.99,,,-99.99,MetarLogicWeatherSta,2013-07-03 18:47:00,
2013-07-03 14:52:00,82.6,72.2,30.13,South,180,0.0,-999.0,70,-99.99,,,-99.99,MetarLogicWeatherSta,2013-07-03 18:52:00,
2013-07-03 14:57:00,82.1,72.0,30.13,SSE,157,0.0,-999.0,71,-99.99,,,-99.99,MetarLogicWeatherSta,2013-07-03 18:57:00,
2013-07-03 15:02:00,81.5,72.2,30.12,South,180,0.0,-999.0,73,-99.99,,,-99.99,MetarLogicWeatherSta,2013-07-03 19:02:00,
2013-07-03 15:07:00,81.7,72.8,30.11,South,180,0.0,-999.0,74,-99.99,,,-99.99,MetarLogicWeatherSta,2013-07-03 19:07:00,
2013-07-03 15:12:00,81.9,71.9,30.11,SSW,202,0.0,-999.0,71,-99.99,,,-99.99,MetarLogicWeatherSta,2013-07-03 19:12:00,
2013-07-03 15:17:00,82.5,71.7,30.11,South,180,0.0,-999.0,69,-99.99,,,-99.99,MetarLogicWeatherSta,2013-07-03 19:17:00,
2013-07-03 15:22:00,83.3,72.7,30.11,South,180,0.0,-999.0,69,-99.99,,,-99.99,MetarLogicWeatherSta,2013-07-03 19:22:00,
2013-07-03 15:27:00,83.4,71.5,30.11,South,180,0.0,-999.0,66,-99.99,,,-99.99,MetarLogicWeatherSta,2013-07-03 19:27:00,
2013-07-03 15:32:00,84.1,73.1,30.11,SSE,157,0.0,-999.0,68,-99.99,,,-99.99,MetarLogicWeatherSta,2013-07-03 19:32:00,
2013-07-03 15:37:00,84.9,74.3,30.11,SSE,157,0.0,-999.0,70,-99.99,,,-99.99,MetarLogicWeatherSta,2013-07-03 19:37:00,
2013-07-03 15:42:00,85.7,73.6,30.11,West,270,3.0,-999.0,66,-99.99,,,-99.99,MetarLogicWeatherSta,2013-07-03 19:42:00,
2013-07-03 15:47:00,85.4,72.7,30.11,South,180,1.0,-999.0,65,-99.99,,,-99.99,MetarLogicWeatherSta,2013-07-03 19:47:00,
2013-07-03 15:52:00,85.0,71.8,30.11,South,180,0.0,-999.0,63,-99.99,,,-99.99,MetarLogicWeatherSta,2013-07-03 19:52:00,
2013-07-03 15:57:00,84.4,72.6,30.11,SSE,157,0.0,-999.0,67,-99.99,,,-99.99,MetarLogicWeatherSta,2013-07-03 19:57:00,
2013-07-03 16:02:00,83.9,72.7,30.10,ESE,112,3.0,-999.0,68,-99.99,,,-99.99,MetarLogicWeatherSta,2013-07-03 20:02:00,
2013-07-03 16:07:00,84.3,73.3,30.10,ESE,112,0.0,-999.0,69,-99.99,,,-99.99,MetarLogicWeatherSta,2013-07-03 20:07:00,
2013-07-03 16:12:00,84.0,72.4,30.09,NE,45,3.0,-999.0,67,-99.99,,,-99.99,MetarLogicWeatherSta,2013-07-03 20:12:00,
2013-07-03 16:17:00,83.6,72.6,30.09,ENE,67,4.0,-999.0,69,-99.99,,,-99.99,MetarLogicWeatherSta,2013-07-03 20:17:00,
2013-07-03 16:22:00,83.4,73.3,30.10,South,180,0.0,-999.0,71,-99.99,,,-99.99,MetarLogicWeatherSta,2013-07-03 20:22:00,
2013-07-03 16:27:00,83.4,73.3,30.10,South,180,0.0,-999.0,71,-99.99,,,-99.99,MetarLogicWeatherSta,2013-07-03 20:27:00,
2013-07-03 16:32:00,82.7,72.6,30.10,SSE,157,1.0,-999.0,70,-99.99,,,-99.99,MetarLogicWeatherSta,2013-07-03 20:32:00,
2013-07-03 16:37:00,82.3,72.6,-100.00,South,180,1.0,-999.0,71,-99.99,,,-99.99,MetarLogicWeatherSta,2013-07-03 20:37:00,
2013-07-03 16:42:00,81.2,70.5,30.11,South,180,1.0,-999.0,69,-99.99,,,-99.99,MetarLogicWeatherSta,2013-07-03 20:42:00,
2013-07-03 16:47:00,79.4,68.7,30.11,WSW,247,4.0,-999.0,69,-99.99,,,-99.99,MetarLogicWeatherSta,2013-07-03 20:47:00,
2013-07-03 16:55:00,78.0,67.3,30.11,SSW,202,3.0,-999.0,69,-99.99,,,-99.99,MetarLogicWeatherSta,2013-07-03 20:55:00,
2013-07-03 17:00:00,76.3,66.9,30.11,West,270,3.0,-999.0,72,-99.99,,,-99.99,MetarLogicWeatherSta,2013-07-03 21:00:00,
2013-07-03 17:05:00,75.4,66.9,30.11,South,180,0.0,-999.0,74,-99.99,,,-99.99,MetarLogicWeatherSta,2013-07-03 21:05:00,
2013-07-03 17:10:00,74.9,67.0,30.10,SSE,157,0.0,-999.0,75,-99.99,,,-99.99,MetarLogicWeatherSta,2013-07-03 21:10:00,
2013-07-03 17:16:00,74.9,67.3,30.11,SW,236,1.0,4.0,76,-99.99,,,-99.99,MetarLogicWeatherSta,2013-07-03 21:16:00,
2013-07-03 17:21:00,74.6,68.5,30.11,South,180,0.0,-999.0,80,-99.99,,,-99.99,MetarLogicWeatherSta,2013-07-03 21:21:00,
2013-07-03 17:26:00,74.0,68.1,30.11,South,180,0.0,-999.0,81,-99.99,,,-99.99,MetarLogicWeatherSta,2013-07-03 21:26:00,
2013-07-03 17:31:00,73.9,68.1,30.11,South,181,0.3,4.0,81,-99.99,,,-99.99,MetarLogicWeatherSta,2013-07-03 21:31:00,
2013-07-03 17:36:00,74.1,68.2,30.11,SE,135,1.0,-999.0,81,-99.99,,,-99.99,MetarLogicWeatherSta,2013-07-03 21:36:00,
2013-07-03 17:41:00,73.7,68.3,30.13,South,180,0.0,-999.0,82,-99.99,,,-99.99,MetarLogicWeatherSta,2013-07-03 21:41:00,
2013-07-03 17:46:00,73.4,67.7,30.13,South,180,0.0,-999.0,82,-99.99,,,-99.99,MetarLogicWeatherSta,2013-07-03 21:46:00,
2013-07-03 17:51:00,72.4,66.6,30.14,West,270,3.0,-999.0,81,-99.99,,,-99.99,MetarLogicWeatherSta,2013-07-03 21:51:00,
2013-07-03 17:56:00,72.3,66.8,30.13,South,180,0.0,-999.0,82,-99.99,,,-99.99,MetarLogicWeatherSta,2013-07-03 21:56:00,
2013-07-03 18:01:00,72.3,66.7,30.14,SSE,157,0.0,-999.0,82,-99.99,,,-99.99,MetarLogicWeatherSta,2013-07-03 22:01:00,
2013-07-03 18:06:00,72.4,67.0,30.15,ENE,67,8.0,-999.0,82,-99.99,,,-99.99,MetarLogicWeatherSta,2013-07-03 22:06:00,
2013-07-03 18:11:00,72.6,66.9,30.15,ESE,112,6.0,-999.0,82,-99.99,,,-99.99,MetarLogicWeatherSta,2013-07-03 22:11:00,
2013-07-03 18:16:00,72.8,67.1,30.14,South,180,0.0,-999.0,82,-99.99,,,-99.99,MetarLogicWeatherSta,2013-07-03 22:16:00,
2013-07-03 18:21:00,72.6,66.8,30.13,WSW,247,4.0,-999.0,81,-99.99,,,-99.99,MetarLogicWeatherSta,2013-07-03 22:21:00,
2013-07-03 18:26:00,72.5,66.6,30.13,WSW,250,2.0,11.0,81,-99.99,,,-99.99,MetarLogicWeatherSta,2013-07-03 22:26:00,
2013-07-03 18:31:00,72.3,66.4,30.13,SW,235,2.0,9.0,81,-99.99,,,-99.99,MetarLogicWeatherSta,2013-07-03 22:31:00,
2013-07-03 18:36:00,72.2,66.3,30.13,South,180,0.0,-999.0,81,-99.99,,,-99.99,MetarLogicWeatherSta,2013-07-03 22:36:00,
2013-07-03 18:41:00,72.1,66.1,30.13,South,180,0.0,-999.0,81,-99.99,,,-99.99,MetarLogicWeatherSta,2013-07-03 22:41:00,
2013-07-03 18:46:00,71.9,65.9,30.13,SSE,157,0.0,-999.0,81,-99.99,,,-99.99,MetarLogicWeatherSta,2013-07-03 22:46:00,
2013-07-03 18:51:00,72.0,66.1,30.13,South,180,1.0,-999.0,81,-99.99,,,-99.99,MetarLogicWeatherSta,2013-07-03 22:51:00,
2013-07-03 18:56:00,72.0,66.1,30.14,South,180,0.0,-999.0,81,-99.99,,,-99.99,MetarLogicWeatherSta,2013-07-03 22:56:00,
2013-07-03 19:01:00,71.9,65.7,30.14,South,180,0.0,-999.0,80,-99.99,,,-99.99,MetarLogicWeatherSta,2013-07-03 23:01:00,
2013-07-03 19:06:00,71.8,65.5,30.14,South,180,0.0,-999.0,80,-99.99,,,-99.99,MetarLogicWeatherSta,2013-07-03 23:06:00,
2013-07-03 19:11:00,71.5,65.3,30.13,SSE,157,0.0,-999.0,80,-99.99,,,-99.99,MetarLogicWeatherSta,2013-07-03 23:11:00,
2013-07-03 19:16:00,71.4,65.4,30.13,SSE,161,1.5,4.0,80,-99.99,,,-99.99,MetarLogicWeatherSta,2013-07-03 23:16:00,
2013-07-03 19:21:00,71.3,65.3,30.13,SE,128,2.5,8.0,80,-99.99,,,-99.99,MetarLogicWeatherSta,2013-07-03 23:21:00,
2013-07-03 19:26:00,71.3,65.5,30.13,South,180,0.0,-999.0,81,-99.99,,,-99.99,MetarLogicWeatherSta,2013-07-03 23:26:00,
2013-07-03 19:31:00,71.2,65.6,30.14,SE,135,0.0,-999.0,82,-99.99,,,-99.99,MetarLogicWeatherSta,2013-07-03 23:31:00,
2013-07-03 19:36:00,70.8,65.2,30.14,South,180,0.0,-999.0,82,-99.99,,,-99.99,MetarLogicWeatherSta,2013-07-03 23:36:00,
2013-07-03 19:41:00,70.6,65.2,30.14,South,180,0.0,-999.0,82,-99.99,,,-99.99,MetarLogicWeatherSta,2013-07-03 23:41:00,
2013-07-03 19:46:00,70.5,65.6,30.14,South,180,0.0,-999.0,84,-99.99,,,-99.99,MetarLogicWeatherSta,2013-07-03 23:46:00,
2013-07-03 19:51:00,70.7,66.0,30.15,South,180,0.0,-999.0,84,-99.99,,,-99.99,MetarLogicWeatherSta,2013-07-03 23:51:00,
2013-07-03 19:56:00,70.3,66.0,30.15,South,180,0.0,-999.0,86,-99.99,,,-99.99,MetarLogicWeatherSta,2013-07-03 23:56:00,
2013-07-03 20:01:00,70.1,66.0,30.15,South,180,0.0,-999.0,86,-99.99,,,-99.99,MetarLogicWeatherSta,2013-07-04 00:01:00,
2013-07-03 20:06:00,69.9,66.0,30.16,South,180,0.0,-999.0,87,-99.99,,,-99.99,MetarLogicWeatherSta,2013-07-04 00:06:00,
2013-07-03 20:11:00,69.7,66.2,30.17,South,180,0.0,-999.0,88,-99.99,,,-99.99,MetarLogicWeatherSta,2013-07-04 00:11:00,
2013-07-03 20:16:00,69.6,66.2,30.16,South,180,0.0,-999.0,88,-99.99,,,-99.99,MetarLogicWeatherSta,2013-07-04 00:16:00,
2013-07-03 20:21:00,69.5,66.2,30.15,SSW,202,1.0,-999.0,89,-99.99,,,-99.99,MetarLogicWeatherSta,2013-07-04 00:21:00,
2013-07-03 20:26:00,69.4,66.4,30.17,South,180,0.0,-999.0,90,-99.99,,,-99.99,MetarLogicWeatherSta,2013-07-04 00:26:00,
2013-07-03 20:31:00,69.3,66.6,30.16,SSE,157,0.0,-999.0,90,-99.99,,,-99.99,MetarLogicWeatherSta,2013-07-04 00:31:00,
2013-07-03 20:36:00,69.2,66.4,30.15,SSE,157,0.0,-999.0,90,-99.99,,,-99.99,MetarLogicWeatherSta,2013-07-04 00:36:00,
2013-07-03 20:41:00,69.1,66.4,30.15,SE,135,0.0,-999.0,90,-99.99,,,-99.99,MetarLogicWeatherSta,2013-07-04 00:41:00,
2013-07-03 20:46:00,69.0,66.3,30.15,SSE,157,0.0,-999.0,90,-99.99,,,-99.99,MetarLogicWeatherSta,2013-07-04 00:46:00,
2013-07-03 20:51:00,69.1,66.2,30.15,SSE,157,0.0,-999.0,90,-99.99,,,-99.99,MetarLogicWeatherSta,2013-07-04 00:51:00,
2013-07-03 20:56:00,69.1,66.5,30.16,South,180,0.0,-999.0,91,-99.99,,,-99.99,MetarLogicWeatherSta,2013-07-04 00:56:00,
2013-07-03 21:01:00,69.2,66.7,30.16,South,180,0.0,-999.0,91,-99.99,,,-99.99,MetarLogicWeatherSta,2013-07-04 01:01:00,
2013-07-03 21:06:00,69.2,66.8,30.15,SE,135,1.0,-999.0,91,-99.99,,,-99.99,MetarLogicWeatherSta,2013-07-04 01:06:00,
2013-07-03 21:11:00,69.2,66.8,30.15,SSE,157,0.0,-999.0,91,-99.99,,,-99.99,MetarLogicWeatherSta,2013-07-04 01:11:00,
2013-07-03 21:16:00,69.3,66.8,30.15,SSE,157,0.0,-999.0,91,-99.99,,,-99.99,MetarLogicWeatherSta,2013-07-04 01:16:00,
2013-07-03 21:21:00,69.2,66.6,30.15,SSE,157,0.0,-999.0,91,-99.99,,,-99.99,MetarLogicWeatherSta,2013-07-04 01:21:00,
2013-07-03 21:26:00,69.3,66.9,30.15,South,180,0.0,-999.0,92,-99.99,,,-99.99,MetarLogicWeatherSta,2013-07-04 01:26:00,
2013-07-03 21:31:00,69.3,66.9,30.15,SSE,157,1.0,-999.0,91,-99.99,,,-99.99,MetarLogicWeatherSta,2013-07-04 01:31:00,
2013-07-03 21:38:00,69.3,66.8,30.15,ESE,112,1.0,-999.0,91,-99.99,,,-99.99,MetarLogicWeatherSta,2013-07-04 01:38:00,
2013-07-03 21:43:00,69.5,67.2,30.17,South,180,0.0,-999.0,92,-99.99,,,-99.99,MetarLogicWeatherSta,2013-07-04 01:43:00,
2013-07-03 21:48:00,69.6,67.4,30.16,SSE,157,0.0,-999.0,92,-99.99,,,-99.99,MetarLogicWeatherSta,2013-07-04 01:48:00,
2013-07-03 21:53:00,69.6,67.4,30.15,SSE,157,0.0,-999.0,92,-99.99,,,-99.99,MetarLogicWeatherSta,2013-07-04 01:53:00,
2013-07-03 21:58:00,69.4,67.1,30.16,South,180,0.0,-999.0,92,-99.99,,,-99.99,MetarLogicWeatherSta,2013-07-04 01:58:00,
2013-07-03 22:03:00,69.5,67.4,30.17,South,180,0.0,-999.0,92,-99.99,,,-99.99,MetarLogicWeatherSta,2013-07-04 02:03:00,
2013-07-03 22:08:00,69.3,67.3,30.17,South,180,0.0,-999.0,93,-99.99,,,-99.99,MetarLogicWeatherSta,2013-07-04 02:08:00,
2013-07-03 22:13:00,69.0,67.3,30.16,ENE,67,3.0,-999.0,94,-99.99,,,-99.99,MetarLogicWeatherSta,2013-07-04 02:13:00,
2013-07-03 22:18:00,68.7,67.1,30.16,SSE,157,0.0,-999.0,94,-99.99,,,-99.99,MetarLogicWeatherSta,2013-07-04 02:18:00,
2013-07-03 22:23:00,69.0,67.3,30.15,SE,135,0.0,-999.0,94,-99.99,,,-99.99,MetarLogicWeatherSta,2013-07-04 02:23:00,
2013-07-03 22:28:00,68.8,67.2,30.14,South,180,0.0,-999.0,94,-99.99,,,-99.99,MetarLogicWeatherSta,2013-07-04 02:28:00,
2013-07-03 22:33:00,68.8,67.0,30.15,SE,135,0.0,-999.0,93,-99.99,,,-99.99,MetarLogicWeatherSta,2013-07-04 02:33:00,
2013-07-03 22:38:00,68.7,67.0,30.15,SSE,157,0.0,-999.0,94,-99.99,,,-99.99,MetarLogicWeatherSta,2013-07-04 02:38:00,
2013-07-03 22:43:00,68.4,66.8,30.15,South,180,0.0,-999.0,94,-99.99,,,-99.99,MetarLogicWeatherSta,2013-07-04 02:43:00,
2013-07-03 22:48:00,68.5,66.8,30.15,SSE,157,0.0,-999.0,94,-99.99,,,-99.99,MetarLogicWeatherSta,2013-07-04 02:48:00,
2013-07-03 22:53:00,68.5,67.3,30.14,SE,135,0.0,-999.0,96,-99.99,,,-99.99,MetarLogicWeatherSta,2013-07-04 02:53:00,
2013-07-03 22:58:00,68.6,67.1,30.14,South,188,0.0,0.0,95,-99.99,,,-99.99,MetarLogicWeatherSta,2013-07-04 02:58:00,
2013-07-03 23:03:00,68.5,67.0,30.15,SSE,157,0.0,-999.0,95,-99.99,,,-99.99,MetarLogicWeatherSta,2013-07-04 03:03:00,
2013-07-03 23:08:00,68.8,67.4,30.15,SSE,157,0.0,-999.0,95,-99.99,,,-99.99,MetarLogicWeatherSta,2013-07-04 03:08:00,
2013-07-03 23:13:00,68.7,67.4,30.15,SSE,157,0.0,-999.0,95,-99.99,,,-99.99,MetarLogicWeatherSta,2013-07-04 03:13:00,
2013-07-03 23:18:00,68.7,67.5,30.15,SSE,157,0.0,-999.0,95,-99.99,,,-99.99,MetarLogicWeatherSta,2013-07-04 03:18:00,
2013-07-03 23:23:00,68.6,67.3,30.15,SSE,157,0.0,-999.0,95,-99.99,,,-99.99,MetarLogicWeatherSta,2013-07-04 03:23:00,
2013-07-03 23:28:00,68.8,67.6,30.15,SSE,157,0.0,-999.0,96,-99.99,,,-99.99,MetarLogicWeatherSta,2013-07-04 03:28:00,
2013-07-03 23:33:00,68.8,67.7,30.15,SSE,157,0.0,-999.0,96,-99.99,,,-99.99,MetarLogicWeatherSta,2013-07-04 03:33:00,
2013-07-03 23:38:00,68.9,67.8,30.15,SE,135,1.0,-999.0,96,-99.99,,,-99.99,MetarLogicWeatherSta,2013-07-04 03:38:00,
2013-07-03 23:43:00,68.8,67.7,30.15,SE,135,0.0,-999.0,96,-99.99,,,-99.99,MetarLogicWeatherSta,2013-07-04 03:43:00,
2013-07-03 23:48:00,69.0,67.9,30.15,SSE,157,0.0,-999.0,96,-99.99,,,-99.99,MetarLogicWeatherSta,2013-07-04 03:48:00,
2013-07-03 23:53:00,69.0,67.9,30.15,SE,135,0.0,-999.0,96,-99.99,,,-99.99,MetarLogicWeatherSta,2013-07-04 03:53:00,
2013-07-03 23:58:00,69.2,67.9,30.15,SSE,157,0.0,-999.0,95,-99.99,,,-99.99,MetarLogicWeatherSta,2013-07-04 03:58:00,